Trade Lake, Wisconsin
Current Conditions -  °F | °C
As of 8:55 PM on Sunday 23 Nov 2014 (Local Time) from KRZN Reporting Station
Haze Haze  
Wind Chill: 33°   Ceiling: 200
Heat Index: 37°   Visibility: 3mi
Dew Point: 36°   Wind: 5mph
Humidity: 98%   Direction: 300°WNW
Pressure: 29.33"   Gusts: NA
Location:  45.6678°N, 92.363°W
Report Text: KRZN 240255Z AUTO 30004KT 3SM BR BKN002 BKN007 OVC037 03/02 A2933 RMK AO2 T00250022
Loading
Personal Weather Stations






























Interactive Weather Map New forecast layout! Learn more

10-Day Weather Forecast

Advertisements
Track Severe Weather on mobile